sensor_id;sensor_type;location;lat;lon;timestamp;pressure;altitude;pressure_sealevel;temperature;humidity
73455;BME280;61690;51.824;6.306;2022-12-10T00:00:41;100716.97;;;15.29;49.81
73455;BME280;61690;51.824;6.306;2022-12-10T00:03:06;100721.38;;;15.28;49.49
73455;BME280;61690;51.824;6.306;2022-12-10T00:05:36;100724.06;;;15.27;49.83
73455;BME280;61690;51.824;6.306;2022-12-10T00:08:01;100724.91;;;15.27;49.63
73455;BME280;61690;51.824;6.306;2022-12-10T00:10:26;100721.53;;;15.25;50.22
73455;BME280;61690;51.824;6.306;2022-12-10T00:12:52;100718.91;;;15.25;49.57
73455;BME280;61690;51.824;6.306;2022-12-10T00:15:17;100723.31;;;15.25;49.66
73455;BME280;61690;51.824;6.306;2022-12-10T00:17:42;100720.00;;;15.21;49.81
73455;BME280;61690;51.824;6.306;2022-12-10T00:20:08;100721.84;;;15.19;49.93
73455;BME280;61690;51.824;6.306;2022-12-10T00:22:34;100722.78;;;15.18;49.72
73455;BME280;61690;51.824;6.306;2022-12-10T00:24:59;100718.47;;;15.17;49.95
73455;BME280;61690;51.824;6.306;2022-12-10T00:27:24;100721.03;;;15.19;49.66
73455;BME280;61690;51.824;6.306;2022-12-10T00:29:50;100723.03;;;15.14;49.76
73455;BME280;61690;51.824;6.306;2022-12-10T00:32:15;100729.09;;;15.14;49.74
73455;BME280;61690;51.824;6.306;2022-12-10T00:34:40;100737.16;;;15.11;49.80
73455;BME280;61690;51.824;6.306;2022-12-10T00:37:05;100733.59;;;15.12;49.96
73455;BME280;61690;51.824;6.306;2022-12-10T00:39:31;100739.78;;;15.11;49.87
73455;BME280;61690;51.824;6.306;2022-12-10T00:41:56;100734.53;;;15.11;49.80
73455;BME280;61690;51.824;6.306;2022-12-10T00:44:22;100737.31;;;15.08;50.06
73455;BME280;61690;51.824;6.306;2022-12-10T00:46:47;100739.16;;;15.06;49.61
73455;BME280;61690;51.824;6.306;2022-12-10T00:49:12;100737.38;;;15.06;49.96
73455;BME280;61690;51.824;6.306;2022-12-10T00:51:38;100740.94;;;15.05;49.84
73455;BME280;61690;51.824;6.306;2022-12-10T00:54:03;100734.06;;;15.03;49.98
73455;BME280;61690;51.824;6.306;2022-12-10T00:56:31;100738.41;;;15.04;49.91
73455;BME280;61690;51.824;6.306;2022-12-10T00:58:59;100737.56;;;15.03;50.03
73455;BME280;61690;51.824;6.306;2022-12-10T01:01:43;100740.25;;;15.02;49.89
73455;BME280;61690;51.824;6.306;2022-12-10T01:04:14;100734.25;;;15.00;49.83
73455;BME280;61690;51.824;6.306;2022-12-10T01:09:08;100735.25;;;14.97;49.81
73455;BME280;61690;51.824;6.306;2022-12-10T01:11:37;100738.72;;;14.98;49.87
73455;BME280;61690;51.824;6.306;2022-12-10T01:14:11;100740.56;;;14.96;49.98
73455;BME280;61690;51.824;6.306;2022-12-10T01:17:01;100732.81;;;14.94;49.91
73455;BME280;61690;51.824;6.306;2022-12-10T01:19:30;100740.72;;;14.93;50.05
73455;BME280;61690;51.824;6.306;2022-12-10T01:21:56;100753.06;;;14.90;50.11
73455;BME280;61690;51.824;6.306;2022-12-10T01:24:23;100755.69;;;14.90;50.05
73455;BME280;61690;51.824;6.306;2022-12-10T01:26:50;100751.28;;;14.91;50.04
73455;BME280;61690;51.824;6.306;2022-12-10T01:29:16;100753.97;;;14.89;49.94
73455;BME280;61690;51.824;6.306;2022-12-10T01:31:41;100753.22;;;14.87;50.05
73455;BME280;61690;51.824;6.306;2022-12-10T01:34:09;100750.59;;;14.87;49.95
73455;BME280;61690;51.824;6.306;2022-12-10T01:36:41;100750.59;;;14.87;49.97
73455;BME280;61690;51.824;6.306;2022-12-10T01:39:09;100755.91;;;14.86;49.99
73455;BME280;61690;51.824;6.306;2022-12-10T01:41:42;100755.13;;;14.84;50.15
73455;BME280;61690;51.824;6.306;2022-12-10T01:46:45;100759.69;;;14.80;49.97
73455;BME280;61690;51.824;6.306;2022-12-10T01:49:15;100765.03;;;14.79;50.21
73455;BME280;61690;51.824;6.306;2022-12-10T01:51:42;100765.94;;;14.78;49.97
73455;BME280;61690;51.824;6.306;2022-12-10T01:54:11;100762.41;;;14.79;50.18
73455;BME280;61690;51.824;6.306;2022-12-10T01:56:41;100773.03;;;14.76;50.09
73455;BME280;61690;51.824;6.306;2022-12-10T01:59:07;100773.03;;;14.76;50.24
73455;BME280;61690;51.824;6.306;2022-12-10T02:01:45;100766.94;;;14.75;50.17
73455;BME280;61690;51.824;6.306;2022-12-10T02:04:33;100771.25;;;14.76;50.06
73455;BME280;61690;51.824;6.306;2022-12-10T02:07:24;100764.34;;;14.75;49.99
73455;BME280;61690;51.824;6.306;2022-12-10T02:10:03;100773.16;;;14.73;50.06
73455;BME280;61690;51.824;6.306;2022-12-10T02:12:39;100769.88;;;14.69;50.30
73455;BME280;61690;51.824;6.306;2022-12-10T02:15:16;100771.56;;;14.70;50.20
73455;BME280;61690;51.824;6.306;2022-12-10T02:17:48;100775.13;;;14.69;50.29
73455;BME280;61690;51.824;6.306;2022-12-10T02:20:25;100774.19;;;14.70;50.19
73455;BME280;61690;51.824;6.306;2022-12-10T02:23:06;100775.13;;;14.69;50.10
73455;BME280;61690;51.824;6.306;2022-12-10T02:25:39;100770.03;;;14.66;50.13
73455;BME280;61690;51.824;6.306;2022-12-10T02:31:11;100771.75;;;14.67;50.06
73455;BME280;61690;51.824;6.306;2022-12-10T02:33:43;100769.25;;;14.64;50.22
73455;BME280;61690;51.824;6.306;2022-12-10T02:36:12;100766.72;;;14.62;50.25
73455;BME280;61690;51.824;6.306;2022-12-10T02:38:39;100765.81;;;14.63;49.97
73455;BME280;61690;51.824;6.306;2022-12-10T02:41:42;100758.16;;;14.59;50.03
73455;BME280;61690;51.824;6.306;2022-12-10T02:44:11;100759.00;;;14.59;50.21
73455;BME280;61690;51.824;6.306;2022-12-10T02:46:38;100761.63;;;14.59;50.22
73455;BME280;61690;51.824;6.306;2022-12-10T02:49:06;100760.78;;;14.59;50.20
73455;BME280;61690;51.824;6.306;2022-12-10T02:51:32;100761.72;;;14.58;50.37
73455;BME280;61690;51.824;6.306;2022-12-10T02:54:03;100762.56;;;14.58;50.20
73455;BME280;61690;51.824;6.306;2022-12-10T02:56:51;100755.75;;;14.54;50.18
73455;BME280;61690;51.824;6.306;2022-12-10T03:02:16;100759.28;;;14.53;50.19
73455;BME280;61690;51.824;6.306;2022-12-10T03:07:45;100765.59;;;14.49;50.25
73455;BME280;61690;51.824;6.306;2022-12-10T03:12:48;100764.69;;;14.50;50.17
73455;BME280;61690;51.824;6.306;2022-12-10T03:15:16;100771.78;;;14.48;50.20
73455;BME280;61690;51.824;6.306;2022-12-10T03:17:47;100758.78;;;14.46;50.26
73455;BME280;61690;51.824;6.306;2022-12-10T03:20:15;100762.16;;;14.48;50.19
73455;BME280;61690;51.824;6.306;2022-12-10T03:22:44;100754.38;;;14.47;50.16
73455;BME280;61690;51.824;6.306;2022-12-10T03:25:42;100761.53;;;14.43;50.18
73455;BME280;61690;51.824;6.306;2022-12-10T03:28:08;100753.69;;;14.43;50.26
73455;BME280;61690;51.824;6.306;2022-12-10T03:30:36;100758.06;;;14.43;50.17
73455;BME280;61690;51.824;6.306;2022-12-10T03:33:03;100764.31;;;14.40;50.25
73455;BME280;61690;51.824;6.306;2022-12-10T03:35:29;100762.59;;;14.39;50.31
73455;BME280;61690;51.824;6.306;2022-12-10T03:37:55;100763.38;;;14.41;50.00
73455;BME280;61690;51.824;6.306;2022-12-10T03:40:23;100761.78;;;14.39;50.26
73455;BME280;61690;51.824;6.306;2022-12-10T03:42:49;100764.47;;;14.37;50.33
73455;BME280;61690;51.824;6.306;2022-12-10T03:45:14;100773.16;;;14.38;50.29
73455;BME280;61690;51.824;6.306;2022-12-10T03:47:40;100774.91;;;14.37;50.23
73455;BME280;61690;51.824;6.306;2022-12-10T03:50:06;100776.78;;;14.35;50.31
73455;BME280;61690;51.824;6.306;2022-12-10T03:52:32;100774.09;;;14.37;50.22
73455;BME280;61690;51.824;6.306;2022-12-10T03:54:57;100770.53;;;14.38;50.20
73455;BME280;61690;51.824;6.306;2022-12-10T03:57:22;100769.84;;;14.34;50.46
73455;BME280;61690;51.824;6.306;2022-12-10T03:59:48;100769.06;;;14.32;50.34
73455;BME280;61690;51.824;6.306;2022-12-10T04:02:13;100766.38;;;14.34;50.17
73455;BME280;61690;51.824;6.306;2022-12-10T04:04:39;100775.06;;;14.34;50.18
73455;BME280;61690;51.824;6.306;2022-12-10T04:07:04;100774.41;;;14.30;50.20
73455;BME280;61690;51.824;6.306;2022-12-10T04:09:29;100775.22;;;14.31;50.19
73455;BME280;61690;51.824;6.306;2022-12-10T04:11:56;100775.22;;;14.31;50.19
73455;BME280;61690;51.824;6.306;2022-12-10T04:14:22;100772.69;;;14.29;50.17
73455;BME280;61690;51.824;6.306;2022-12-10T04:17:06;100778.94;;;14.27;50.25
73455;BME280;61690;51.824;6.306;2022-12-10T04:19:31;100773.69;;;14.27;50.16
73455;BME280;61690;51.824;6.306;2022-12-10T04:21:56;100770.31;;;14.25;50.42
73455;BME280;61690;51.824;6.306;2022-12-10T04:24:40;100774.59;;;14.26;50.24
73455;BME280;61690;51.824;6.306;2022-12-10T04:27:27;100776.44;;;14.24;50.33
73455;BME280;61690;51.824;6.306;2022-12-10T04:29:53;100784.22;;;14.25;50.24
73455;BME280;61690;51.824;6.306;2022-12-10T04:32:20;100784.44;;;14.21;50.45
73455;BME280;61690;51.824;6.306;2022-12-10T04:34:45;100778.28;;;14.22;50.34
73455;BME280;61690;51.824;6.306;2022-12-10T04:37:11;100779.06;;;14.24;50.35
73455;BME280;61690;51.824;6.306;2022-12-10T04:39:38;100775.81;;;14.19;50.46
73455;BME280;61690;51.824;6.306;2022-12-10T04:42:03;100778.38;;;14.20;50.18
73455;BME280;61690;51.824;6.306;2022-12-10T04:44:29;100773.97;;;14.21;50.33
73455;BME280;61690;51.824;6.306;2022-12-10T04:46:54;100781.03;;;14.19;50.30
73455;BME280;61690;51.824;6.306;2022-12-10T04:49:20;100787.16;;;14.19;50.28
73455;BME280;61690;51.824;6.306;2022-12-10T04:51:46;100782.81;;;14.18;50.36
73455;BME280;61690;51.824;6.306;2022-12-10T04:54:12;100785.44;;;14.18;50.40
73455;BME280;61690;51.824;6.306;2022-12-10T04:56:37;100783.66;;;14.19;50.42
73455;BME280;61690;51.824;6.306;2022-12-10T04:59:04;100788.06;;;14.18;50.18
73455;BME280;61690;51.824;6.306;2022-12-10T05:01:29;100784.75;;;14.15;50.55
73455;BME280;61690;51.824;6.306;2022-12-10T05:03:58;100787.41;;;14.13;50.33
73455;BME280;61690;51.824;6.306;2022-12-10T05:06:24;100791.81;;;14.12;50.32
73455;BME280;61690;51.824;6.306;2022-12-10T05:08:49;100793.53;;;14.14;50.28
73455;BME280;61690;51.824;6.306;2022-12-10T05:11:17;100799.66;;;14.12;50.43
73455;BME280;61690;51.824;6.306;2022-12-10T05:13:43;100793.66;;;14.10;50.19
73455;BME280;61690;51.824;6.306;2022-12-10T05:16:11;100796.34;;;14.09;50.34
73455;BME280;61690;51.824;6.306;2022-12-10T05:18:37;100793.66;;;14.10;50.44
73455;BME280;61690;51.824;6.306;2022-12-10T05:21:04;100790.28;;;14.08;50.28
73455;BME280;61690;51.824;6.306;2022-12-10T05:23:31;100785.94;;;14.07;50.29
73455;BME280;61690;51.824;6.306;2022-12-10T05:28:45;100789.56;;;14.05;50.29
73455;BME280;61690;51.824;6.306;2022-12-10T05:31:13;100789.50;;;14.06;50.36
73455;BME280;61690;51.824;6.306;2022-12-10T05:33:38;100791.28;;;14.06;50.31
73455;BME280;61690;51.824;6.306;2022-12-10T05:36:04;100796.41;;;14.07;50.14
73455;BME280;61690;51.824;6.306;2022-12-10T05:38:31;100787.13;;;14.02;50.35
73455;BME280;61690;51.824;6.306;2022-12-10T05:41:04;100795.75;;;14.04;50.33
73455;BME280;61690;51.824;6.306;2022-12-10T05:43:30;100791.47;;;14.01;50.33
73455;BME280;61690;51.824;6.306;2022-12-10T05:46:03;100795.03;;;14.00;50.36
73455;BME280;61690;51.824;6.306;2022-12-10T05:48:28;100798.47;;;14.01;50.44
73455;BME280;61690;51.824;6.306;2022-12-10T05:50:54;100787.19;;;14.00;50.34
73455;BME280;61690;51.824;6.306;2022-12-10T05:53:19;100796.09;;;13.96;50.33
73455;BME280;61690;51.824;6.306;2022-12-10T05:55:45;100796.78;;;14.00;50.26
73455;BME280;61690;51.824;6.306;2022-12-10T05:58:10;100797.47;;;14.03;50.20
73455;BME280;61690;51.824;6.306;2022-12-10T06:00:38;100805.47;;;14.19;49.90
73455;BME280;61690;51.824;6.306;2022-12-10T06:03:04;100802.09;;;14.35;49.60
73455;BME280;61690;51.824;6.306;2022-12-10T06:05:29;100806.56;;;14.50;49.13
73455;BME280;61690;51.824;6.306;2022-12-10T06:07:54;100806.69;;;14.66;48.85
73455;BME280;61690;51.824;6.306;2022-12-10T06:10:19;100800.81;;;14.78;48.65
73455;BME280;61690;51.824;6.306;2022-12-10T06:12:47;100798.50;;;14.89;48.21
73455;BME280;61690;51.824;6.306;2022-12-10T06:15:13;100796.16;;;15.01;48.13
73455;BME280;61690;51.824;6.306;2022-12-10T06:17:38;100800.03;;;15.11;48.04
73455;BME280;61690;51.824;6.306;2022-12-10T06:20:04;100797.66;;;15.22;47.43
73455;BME280;61690;51.824;6.306;2022-12-10T06:22:29;100801.31;;;15.36;47.38
73455;BME280;61690;51.824;6.306;2022-12-10T06:24:54;100802.09;;;15.38;47.30
73455;BME280;61690;51.824;6.306;2022-12-10T06:27:19;100795.78;;;15.42;47.49
73455;BME280;61690;51.824;6.306;2022-12-10T06:29:45;100799.66;;;15.51;47.15
73455;BME280;61690;51.824;6.306;2022-12-10T06:32:10;100803.81;;;15.55;47.01
73455;BME280;61690;51.824;6.306;2022-12-10T06:34:35;100803.47;;;15.61;47.20
73455;BME280;61690;51.824;6.306;2022-12-10T06:37:01;100811.03;;;15.67;47.07
73455;BME280;61690;51.824;6.306;2022-12-10T06:39:26;100813.25;;;15.75;46.88
73455;BME280;61690;51.824;6.306;2022-12-10T06:41:51;100811.47;;;15.75;46.78
73455;BME280;61690;51.824;6.306;2022-12-10T06:44:16;100807.53;;;15.84;46.57
73455;BME280;61690;51.824;6.306;2022-12-10T06:46:42;100809.19;;;15.85;46.85
73455;BME280;61690;51.824;6.306;2022-12-10T06:49:08;100814.78;;;15.95;46.68
73455;BME280;61690;51.824;6.306;2022-12-10T06:51:33;100816.28;;;15.99;46.48
73455;BME280;61690;51.824;6.306;2022-12-10T06:53:59;100815.94;;;16.05;46.39
73455;BME280;61690;51.824;6.306;2022-12-10T06:56:24;100814.00;;;16.08;46.01
73455;BME280;61690;51.824;6.306;2022-12-10T06:58:49;100820.75;;;16.13;46.46
73455;BME280;61690;51.824;6.306;2022-12-10T07:01:21;100823.38;;;16.13;46.38
73455;BME280;61690;51.824;6.306;2022-12-10T07:03:51;100828.25;;;16.20;46.03
73455;BME280;61690;51.824;6.306;2022-12-10T07:06:18;100831.69;;;16.21;46.35
73455;BME280;61690;51.824;6.306;2022-12-10T07:08:44;100833.88;;;16.29;46.25
73455;BME280;61690;51.824;6.306;2022-12-10T07:11:11;100835.47;;;16.31;45.64
73455;BME280;61690;51.824;6.306;2022-12-10T07:13:37;100825.56;;;16.36;46.00
73455;BME280;61690;51.824;6.306;2022-12-10T07:19:08;100837.50;;;16.42;45.96
73455;BME280;61690;51.824;6.306;2022-12-10T07:21:36;100839.78;;;16.48;45.54
73455;BME280;61690;51.824;6.306;2022-12-10T07:24:05;100858.06;;;16.50;45.78
73455;BME280;61690;51.824;6.306;2022-12-10T07:26:34;100848.31;;;16.52;45.57
73455;BME280;61690;51.824;6.306;2022-12-10T07:29:00;100849.69;;;16.59;45.49
73455;BME280;61690;51.824;6.306;2022-12-10T07:31:26;100855.69;;;16.61;45.61
73455;BME280;61690;51.824;6.306;2022-12-10T07:33:53;100854.66;;;16.63;45.45
73455;BME280;61690;51.824;6.306;2022-12-10T07:36:21;100859.63;;;16.68;45.46
73455;BME280;61690;51.824;6.306;2022-12-10T07:38:48;100856.84;;;16.71;45.52
73455;BME280;61690;51.824;6.306;2022-12-10T07:41:13;100849.72;;;16.73;45.59
73455;BME280;61690;51.824;6.306;2022-12-10T07:43:41;100861.06;;;16.74;45.58
73455;BME280;61690;51.824;6.306;2022-12-10T07:46:16;100870.72;;;16.73;45.45
73455;BME280;61690;51.824;6.306;2022-12-10T07:48:43;100874.84;;;16.77;45.62
73455;BME280;61690;51.824;6.306;2022-12-10T07:51:09;100873.94;;;16.78;45.65
73455;BME280;61690;51.824;6.306;2022-12-10T07:53:35;100880.72;;;16.82;45.55
73455;BME280;61690;51.824;6.306;2022-12-10T07:56:01;100877.81;;;16.87;45.30
73455;BME280;61690;51.824;6.306;2022-12-10T07:58:27;100874.94;;;16.92;45.23
73455;BME280;61690;51.824;6.306;2022-12-10T08:00:52;100878.50;;;16.91;45.38
73455;BME280;61690;51.824;6.306;2022-12-10T08:03:17;100877.38;;;16.95;44.89
73455;BME280;61690;51.824;6.306;2022-12-10T08:05:42;100880.75;;;16.97;45.12
73455;BME280;61690;51.824;6.306;2022-12-10T08:08:08;100881.41;;;17.00;45.20
73455;BME280;61690;51.824;6.306;2022-12-10T08:10:37;100891.84;;;17.02;44.98
73455;BME280;61690;51.824;6.306;2022-12-10T08:13:03;100889.97;;;17.04;45.15
73455;BME280;61690;51.824;6.306;2022-12-10T08:15:29;100898.06;;;17.01;45.31
73455;BME280;61690;51.824;6.306;2022-12-10T08:17:55;100902.38;;;17.02;45.23
73455;BME280;61690;51.824;6.306;2022-12-10T08:20:21;100897.28;;;16.99;45.12
73455;BME280;61690;51.824;6.306;2022-12-10T08:22:48;100899.81;;;17.00;45.01
73455;BME280;61690;51.824;6.306;2022-12-10T08:25:13;100898.13;;;16.99;45.40
73455;BME280;61690;51.824;6.306;2022-12-10T08:27:38;100903.31;;;17.01;44.81
73455;BME280;61690;51.824;6.306;2022-12-10T08:30:04;100902.44;;;17.00;45.15
73455;BME280;61690;51.824;6.306;2022-12-10T08:32:30;100900.69;;;17.01;45.29
73455;BME280;61690;51.824;6.306;2022-12-10T08:34:55;100907.63;;;17.02;45.10
73455;BME280;61690;51.824;6.306;2022-12-10T08:37:21;100912.88;;;17.02;45.30
73455;BME280;61690;51.824;6.306;2022-12-10T08:39:46;100916.44;;;17.01;45.24
73455;BME280;61690;51.824;6.306;2022-12-10T08:42:11;100924.06;;;17.05;45.36
73455;BME280;61690;51.824;6.306;2022-12-10T08:44:37;100925.84;;;17.05;44.85
73455;BME280;61690;51.824;6.306;2022-12-10T08:47:02;100932.69;;;17.08;44.70
73455;BME280;61690;51.824;6.306;2022-12-10T08:49:27;100930.16;;;17.06;45.15
73455;BME280;61690;51.824;6.306;2022-12-10T08:51:53;100936.16;;;17.08;45.22
73455;BME280;61690;51.824;6.306;2022-12-10T08:54:19;100936.25;;;17.07;44.77
73455;BME280;61690;51.824;6.306;2022-12-10T08:56:44;100933.53;;;17.08;44.84
73455;BME280;61690;51.824;6.306;2022-12-10T08:59:09;100929.97;;;17.09;44.90
73455;BME280;61690;51.824;6.306;2022-12-10T09:01:44;100931.66;;;17.10;44.78
73455;BME280;61690;51.824;6.306;2022-12-10T09:04:11;100932.59;;;17.09;44.86
73455;BME280;61690;51.824;6.306;2022-12-10T09:06:37;100935.25;;;17.09;45.11
73455;BME280;61690;51.824;6.306;2022-12-10T09:09:03;100939.22;;;17.16;45.14
73455;BME280;61690;51.824;6.306;2022-12-10T09:11:31;100942.97;;;17.27;45.77
73455;BME280;61690;51.824;6.306;2022-12-10T09:13:57;100943.28;;;17.36;45.31
73455;BME280;61690;51.824;6.306;2022-12-10T09:16:36;100946.56;;;17.40;45.47
73455;BME280;61690;51.824;6.306;2022-12-10T09:19:03;100948.00;;;17.46;45.95
73455;BME280;61690;51.824;6.306;2022-12-10T09:21:29;100945.44;;;17.44;46.15
73455;BME280;61690;51.824;6.306;2022-12-10T09:23:56;100951.09;;;17.52;46.35
73455;BME280;61690;51.824;6.306;2022-12-10T09:26:21;100951.16;;;17.51;46.16
73455;BME280;61690;51.824;6.306;2022-12-10T09:28:47;100956.06;;;17.42;46.45
73455;BME280;61690;51.824;6.306;2022-12-10T09:31:13;100963.69;;;17.47;46.64
73455;BME280;61690;51.824;6.306;2022-12-10T09:33:40;100958.44;;;17.47;46.66
73455;BME280;61690;51.824;6.306;2022-12-10T09:36:08;100961.81;;;17.49;47.30
73455;BME280;61690;51.824;6.306;2022-12-10T09:38:34;100965.19;;;17.51;47.21
73455;BME280;61690;51.824;6.306;2022-12-10T09:41:03;100961.53;;;17.54;46.95
73455;BME280;61690;51.824;6.306;2022-12-10T09:43:50;100964.22;;;17.52;47.33
73455;BME280;61690;51.824;6.306;2022-12-10T09:46:32;100961.59;;;17.52;47.56
73455;BME280;61690;51.824;6.306;2022-12-10T09:49:29;100956.09;;;17.57;47.53
73455;BME280;61690;51.824;6.306;2022-12-10T09:52:00;100960.31;;;17.59;47.43
73455;BME280;61690;51.824;6.306;2022-12-10T09:54:30;100952.41;;;17.59;47.31
73455;BME280;61690;51.824;6.306;2022-12-10T09:56:57;100957.69;;;17.59;47.55
73455;BME280;61690;51.824;6.306;2022-12-10T09:59:29;100961.72;;;17.65;47.44
73455;BME280;61690;51.824;6.306;2022-12-10T10:02:12;100961.72;;;17.65;47.93
73455;BME280;61690;51.824;6.306;2022-12-10T10:04:41;100962.47;;;17.67;47.41
73455;BME280;61690;51.824;6.306;2022-12-10T10:07:11;100959.94;;;17.66;47.75
73455;BME280;61690;51.824;6.306;2022-12-10T10:09:41;100950.28;;;17.66;47.56
73455;BME280;61690;51.824;6.306;2022-12-10T10:12:13;100955.41;;;17.68;47.28
73455;BME280;61690;51.824;6.306;2022-12-10T10:14:41;100956.16;;;17.70;47.85
73455;BME280;61690;51.824;6.306;2022-12-10T10:17:16;100963.13;;;17.71;47.34
73455;BME280;61690;51.824;6.306;2022-12-10T10:19:43;100958.44;;;17.61;47.29
73455;BME280;61690;51.824;6.306;2022-12-10T10:22:10;100956.56;;;17.63;47.28
73455;BME280;61690;51.824;6.306;2022-12-10T10:24:42;100963.22;;;17.69;47.11
73455;BME280;61690;51.824;6.306;2022-12-10T10:27:17;100961.25;;;17.73;47.40
73455;BME280;61690;51.824;6.306;2022-12-10T10:29:46;100964.56;;;17.76;47.62
73455;BME280;61690;51.824;6.306;2022-12-10T10:32:15;100962.75;;;17.77;47.61
73455;BME280;61690;51.824;6.306;2022-12-10T10:34:42;100965.97;;;17.82;47.49
73455;BME280;61690;51.824;6.306;2022-12-10T10:37:15;100963.81;;;17.89;47.45
73455;BME280;61690;51.824;6.306;2022-12-10T10:39:46;100968.03;;;17.77;47.05
73455;BME280;61690;51.824;6.306;2022-12-10T10:42:34;100968.34;;;17.87;47.44
73455;BME280;61690;51.824;6.306;2022-12-10T10:45:03;100973.88;;;17.96;47.75
73455;BME280;61690;51.824;6.306;2022-12-10T10:47:31;100971.81;;;18.01;48.25
73455;BME280;61690;51.824;6.306;2022-12-10T10:49:57;100963.34;;;17.96;47.67
73455;BME280;61690;51.824;6.306;2022-12-10T10:52:28;100959.03;;;17.95;48.07
73455;BME280;61690;51.824;6.306;2022-12-10T10:54:53;100964.41;;;17.94;47.70
73455;BME280;61690;51.824;6.306;2022-12-10T10:57:32;100976.41;;;17.98;47.99
73455;BME280;61690;51.824;6.306;2022-12-10T11:00:21;100974.63;;;17.98;47.85
73455;BME280;61690;51.824;6.306;2022-12-10T11:02:50;100969.56;;;17.95;47.64
73455;BME280;61690;51.824;6.306;2022-12-10T11:05:24;100960.34;;;17.88;47.79
73455;BME280;61690;51.824;6.306;2022-12-10T11:08:04;100966.53;;;17.87;47.18
73455;BME280;61690;51.824;6.306;2022-12-10T11:10:31;100958.66;;;17.87;47.42
73455;BME280;61690;51.824;6.306;2022-12-10T11:12:59;100963.06;;;17.87;47.08
73455;BME280;61690;51.824;6.306;2022-12-10T11:15:37;100966.75;;;17.84;47.24
73455;BME280;61690;51.824;6.306;2022-12-10T11:18:26;100962.38;;;17.83;47.24
73455;BME280;61690;51.824;6.306;2022-12-10T11:21:02;100965.00;;;17.83;47.53
73455;BME280;61690;51.824;6.306;2022-12-10T11:23:41;100961.09;;;17.90;47.62
73455;BME280;61690;51.824;6.306;2022-12-10T11:26:15;100959.31;;;17.91;47.32
73455;BME280;61690;51.824;6.306;2022-12-10T11:29:02;100953.69;;;17.97;47.74
73455;BME280;61690;51.824;6.306;2022-12-10T11:31:44;100952.66;;;17.99;48.66
73455;BME280;61690;51.824;6.306;2022-12-10T11:34:20;100953.41;;;18.01;48.35
73455;BME280;61690;51.824;6.306;2022-12-10T11:37:03;100950.09;;;17.98;47.73
73455;BME280;61690;51.824;6.306;2022-12-10T11:42:48;100951.41;;;18.05;48.29
73455;BME280;61690;51.824;6.306;2022-12-10T11:48:30;100959.31;;;18.05;47.94
73455;BME280;61690;51.824;6.306;2022-12-10T11:51:07;100945.94;;;18.08;48.03
73455;BME280;61690;51.824;6.306;2022-12-10T11:53:56;100944.94;;;18.11;47.87
73455;BME280;61690;51.824;6.306;2022-12-10T11:56:39;100942.78;;;18.03;46.92
73455;BME280;61690;51.824;6.306;2022-12-10T11:59:36;100943.06;;;17.84;45.98
73455;BME280;61690;51.824;6.306;2022-12-10T12:13:32;100950.34;;;17.79;45.34
73455;BME280;61690;51.824;6.306;2022-12-10T12:16:04;100940.44;;;17.84;44.98
73455;BME280;61690;51.824;6.306;2022-12-10T12:21:11;100943.63;;;17.89;45.11
73455;BME280;61690;51.824;6.306;2022-12-10T12:23:56;100940.81;;;17.92;45.06
73455;BME280;61690;51.824;6.306;2022-12-10T12:26:40;100944.47;;;17.90;44.98
73455;BME280;61690;51.824;6.306;2022-12-10T12:29:41;100938.16;;;17.92;44.82
73455;BME280;61690;51.824;6.306;2022-12-10T12:32:19;100940.06;;;17.90;44.97
73455;BME280;61690;51.824;6.306;2022-12-10T12:34:58;100940.06;;;17.90;45.25
73455;BME280;61690;51.824;6.306;2022-12-10T12:37:35;100934.13;;;17.87;45.25
73455;BME280;61690;51.824;6.306;2022-12-10T12:40:34;100938.69;;;17.83;45.19
73455;BME280;61690;51.824;6.306;2022-12-10T12:43:08;100941.31;;;17.83;45.45
73455;BME280;61690;51.824;6.306;2022-12-10T12:45:40;100949.50;;;17.78;45.46
73455;BME280;61690;51.824;6.306;2022-12-10T12:51:17;100948.09;;;17.73;45.32
73455;BME280;61690;51.824;6.306;2022-12-10T12:53:44;100938.50;;;17.72;45.59
73455;BME280;61690;51.824;6.306;2022-12-10T12:59:05;100947.81;;;17.77;45.52
73455;BME280;61690;51.824;6.306;2022-12-10T13:04:14;100948.25;;;17.86;45.17
73455;BME280;61690;51.824;6.306;2022-12-10T13:06:40;100953.38;;;17.87;45.33
73455;BME280;61690;51.824;6.306;2022-12-10T13:11:39;100949.00;;;17.88;45.20
73455;BME280;61690;51.824;6.306;2022-12-10T13:14:14;100949.06;;;17.86;45.21
73455;BME280;61690;51.824;6.306;2022-12-10T13:34:41;100955.16;;;17.72;45.78
73455;BME280;61690;51.824;6.306;2022-12-10T13:40:01;100959.75;;;17.69;45.68
73455;BME280;61690;51.824;6.306;2022-12-10T13:42:31;100956.28;;;17.68;45.70
73455;BME280;61690;51.824;6.306;2022-12-10T13:53:40;100963.97;;;17.71;45.44
73455;BME280;61690;51.824;6.306;2022-12-10T13:59:34;100976.56;;;17.80;45.27
73455;BME280;61690;51.824;6.306;2022-12-10T14:08:16;100980.75;;;17.85;44.96
73455;BME280;61690;51.824;6.306;2022-12-10T14:10:43;100988.53;;;17.86;44.90
73455;BME280;61690;51.824;6.306;2022-12-10T14:13:11;100985.16;;;17.84;44.74
73455;BME280;61690;51.824;6.306;2022-12-10T14:15:38;100986.06;;;17.83;45.24
73455;BME280;61690;51.824;6.306;2022-12-10T14:18:13;100990.78;;;17.78;44.82
73455;BME280;61690;51.824;6.306;2022-12-10T14:20:49;101000.34;;;17.79;45.32
73455;BME280;61690;51.824;6.306;2022-12-10T14:23:34;101004.09;;;17.75;45.33
73455;BME280;61690;51.824;6.306;2022-12-10T14:26:28;100997.34;;;17.71;45.29
73455;BME280;61690;51.824;6.306;2022-12-10T14:31:33;100998.56;;;17.65;45.02
73455;BME280;61690;51.824;6.306;2022-12-10T14:34:03;100997.50;;;17.68;44.89
73455;BME280;61690;51.824;6.306;2022-12-10T14:36:32;101003.53;;;17.70;44.94
73455;BME280;61690;51.824;6.306;2022-12-10T14:38:59;100999.69;;;17.75;44.65